Wendover, Nevada
Current Conditions -  °F | °C
As of 8:55 PM on Friday 24 Oct 2014 (Local Time) from KENV Reporting Station
Clear Clear  
Wind Chill: 55°   Ceiling: Unl
Heat Index: 55°   Visibility: 10mi
Dew Point: 34°   Wind: 0mph
Humidity: 44%   Direction: NA
Pressure: 30.06"   Gusts: NA
Location:  40.7438°N, 114.134°W
Report Text: KENV 250255Z AUTO 00000KT 10SM CLR 13/01 A3006 RMK AO1 57007
Loading
Personal Weather Stations






























Interactive Weather Map
Tropical Storm Tracking
New forecast layout! Learn more

10-Day Weather Forecast

Advertisements
Track Severe Weather on mobile